Time;durP1;ratioP1;P1;durP2;ratioP2;P2;SDS_P1;SDS_P2;PMS_P1;PMS_P2;Temp;Humidity;BMP_temperature;BMP_pressure;BME280_temperature;BME280_humidity;BME280_pressure;Samples;Min_cycle;Max_cycle;Signal;HPM_P1;HPM_P2
2023/04/26 00:02:08;;;;;;;5.32;1.58;;;1.50;99.90;;;;;;7301733;32;20135;-55
2023/04/26 00:06:13;;;;;;;2.67;1.37;;;1.50;99.90;;;;;;7309278;32;20199;-55
2023/04/26 00:10:15;;;;;;;6.62;2.03;;;1.50;99.90;;;;;;7302417;32;20372;-55
2023/04/26 00:14:16;;;;;;;7.18;1.50;;;1.50;99.90;;;;;;7302529;32;20489;-55
2023/04/26 00:18:18;;;;;;;8.63;1.70;;;1.40;99.90;;;;;;7298441;32;20851;-57
2023/04/26 00:22:20;;;;;;;4.80;1.60;;;1.40;99.90;;;;;;7299003;32;20468;-55
2023/04/26 00:26:22;;;;;;;4.05;1.60;;;1.40;99.90;;;;;;7296607;32;20153;-55
2023/04/26 00:30:24;;;;;;;4.47;1.62;;;1.40;99.90;;;;;;7298559;32;20209;-55
2023/04/26 00:34:34;;;;;;;4.50;1.52;;;1.30;99.90;;;;;;7297873;32;20092;-54
2023/04/26 00:38:36;;;;;;;3.58;1.70;;;1.20;99.90;;;;;;7297107;32;20095;-56
2023/04/26 00:42:39;;;;;;;2.78;1.55;;;1.20;99.90;;;;;;7295897;32;20499;-55
2023/04/26 00:46:40;;;;;;;3.92;1.67;;;1.10;99.90;;;;;;7301888;32;20146;-55
2023/04/26 00:50:43;;;;;;;3.90;1.65;;;1.10;99.90;;;;;;7306213;32;20088;-55
2023/04/26 00:54:44;;;;;;;4.40;1.30;;;1.10;99.90;;;;;;7301777;32;20252;-55
2023/04/26 00:58:46;;;;;;;6.47;1.87;;;1.00;99.90;;;;;;7306888;32;20131;-54
2023/04/26 01:02:48;;;;;;;5.12;1.80;;;1.00;99.90;;;;;;7307877;32;20096;-55
2023/04/26 01:06:50;;;;;;;2.35;1.50;;;0.90;99.90;;;;;;7310387;32;20214;-55
2023/04/26 01:10:53;;;;;;;5.35;1.60;;;0.90;99.90;;;;;;7305439;32;20108;-55
2023/04/26 01:14:56;;;;;;;4.43;1.77;;;0.90;99.90;;;;;;7316511;32;20134;-55
2023/04/26 01:19:05;;;;;;;5.90;1.77;;;0.90;99.90;;;;;;7306676;32;20170;-55
2023/04/26 01:23:10;;;;;;;3.33;1.45;;;0.90;99.90;;;;;;7307175;32;20104;-55
2023/04/26 01:27:12;;;;;;;2.80;1.70;;;0.80;99.90;;;;;;7310053;32;20133;-55
2023/04/26 01:31:14;;;;;;;6.80;1.92;;;0.80;99.90;;;;;;7307958;32;20483;-55
2023/04/26 01:35:16;;;;;;;5.32;1.90;;;0.80;99.90;;;;;;7308193;32;20241;-54
2023/04/26 01:39:18;;;;;;;4.03;1.67;;;0.70;99.90;;;;;;7306182;32;20127;-55
2023/04/26 01:43:21;;;;;;;6.25;1.90;;;0.80;99.90;;;;;;7311990;32;20544;-55
2023/04/26 01:47:25;;;;;;;7.87;1.98;;;0.80;99.90;;;;;;7304444;32;20177;-55
2023/04/26 01:51:26;;;;;;;5.37;1.60;;;0.70;99.90;;;;;;7308809;32;20127;-55
2023/04/26 01:55:28;;;;;;;5.72;1.80;;;0.70;99.90;;;;;;7308539;32;20581;-55
2023/04/26 01:59:30;;;;;;;5.22;1.73;;;0.60;99.90;;;;;;7305878;32;20285;-55
2023/04/26 02:03:32;;;;;;;6.75;2.00;;;0.60;99.90;;;;;;7301003;32;20251;-54
2023/04/26 02:07:34;;;;;;;5.43;2.10;;;0.60;99.90;;;;;;7306718;32;20728;-54
2023/04/26 02:11:36;;;;;;;3.92;1.85;;;0.60;99.90;;;;;;7307223;32;20526;-54
2023/04/26 02:15:38;;;;;;;6.25;2.20;;;0.60;99.90;;;;;;7305727;32;20521;-54
2023/04/26 02:19:39;;;;;;;4.03;2.10;;;0.60;99.90;;;;;;7309414;32;20740;-54
2023/04/26 02:23:41;;;;;;;4.20;2.15;;;0.60;99.90;;;;;;7298728;32;20118;-55
2023/04/26 02:27:43;;;;;;;4.20;1.87;;;0.60;99.90;;;;;;7300208;32;20317;-54
2023/04/26 02:31:44;;;;;;;6.50;2.30;;;0.60;99.90;;;;;;7301154;32;20178;-54
2023/04/26 02:35:46;;;;;;;3.78;2.10;;;0.50;99.90;;;;;;7303964;32;20104;-55
2023/04/26 02:39:51;;;;;;;5.95;1.85;;;0.70;99.90;;;;;;7304314;32;21730;-56
2023/04/26 02:43:53;;;;;;;2.65;1.55;;;0.50;99.90;;;;;;7305953;32;20306;-54
2023/04/26 02:47:54;;;;;;;4.62;1.92;;;0.40;99.90;;;;;;7305182;32;20095;-54
2023/04/26 02:51:56;;;;;;;4.32;2.12;;;0.50;99.90;;;;;;7306264;32;20116;-55
2023/04/26 02:55:59;;;;;;;3.78;2.20;;;0.40;99.90;;;;;;7300119;32;20153;-56
2023/04/26 03:00:01;;;;;;;4.15;2.22;;;0.40;99.90;;;;;;7299979;32;20104;-56
2023/04/26 03:04:03;;;;;;;7.20;2.20;;;0.40;99.90;;;;;;7303864;32;20111;-55
2023/04/26 03:08:05;;;;;;;4.10;2.45;;;0.30;99.90;;;;;;7302649;32;20137;-55
2023/04/26 03:12:07;;;;;;;6.53;2.03;;;0.40;99.90;;;;;;7308156;32;20146;-56
2023/04/26 03:16:09;;;;;;;5.07;2.20;;;0.40;99.90;;;;;;7304963;32;20127;-55
2023/04/26 03:20:12;;;;;;;12.25;2.67;;;0.30;99.90;;;;;;7306965;32;20577;-54
2023/04/26 03:24:14;;;;;;;6.68;2.85;;;0.40;99.90;;;;;;7302054;32;20325;-54
2023/04/26 03:28:16;;;;;;;5.30;2.65;;;0.40;99.90;;;;;;7301510;32;20115;-55
2023/04/26 03:32:18;;;;;;;5.32;2.72;;;0.30;99.90;;;;;;7302298;32;20136;-56
2023/04/26 03:36:20;;;;;;;5.87;2.25;;;0.30;99.90;;;;;;7309417;32;20195;-55
2023/04/26 03:40:21;;;;;;;6.97;3.30;;;0.30;99.90;;;;;;7307138;32;20168;-54
2023/04/26 03:44:23;;;;;;;4.78;2.80;;;0.30;99.90;;;;;;7302954;32;20204;-55
2023/04/26 03:48:26;;;;;;;7.37;2.95;;;0.20;99.90;;;;;;7304446;32;20495;-54
2023/04/26 03:52:27;;;;;;;5.72;2.47;;;0.20;99.90;;;;;;7300050;32;20450;-55
2023/04/26 03:56:29;;;;;;;7.10;2.75;;;0.20;99.90;;;;;;7309826;32;20757;-55
2023/04/26 04:00:30;;;;;;;6.25;2.60;;;0.30;99.90;;;;;;7300289;32;20343;-54
2023/04/26 04:04:32;;;;;;;6.43;2.72;;;0.30;99.90;;;;;;7304249;32;20104;-54
2023/04/26 04:08:34;;;;;;;7.85;3.00;;;0.20;99.90;;;;;;7301429;32;20207;-54
2023/04/26 04:12:36;;;;;;;6.50;3.03;;;0.20;99.90;;;;;;7302524;32;20103;-55
2023/04/26 04:16:38;;;;;;;5.47;3.08;;;0.20;99.90;;;;;;7309431;32;20164;-55
2023/04/26 04:20:40;;;;;;;6.43;2.92;;;0.20;99.90;;;;;;7310098;32;20282;-56
2023/04/26 04:24:43;;;;;;;7.43;3.00;;;0.20;99.90;;;;;;7308485;32;20194;-56
2023/04/26 04:28:46;;;;;;;8.60;3.08;;;0.20;99.90;;;;;;7308195;32;20107;-55
2023/04/26 04:32:47;;;;;;;6.35;3.28;;;0.10;99.90;;;;;;7310236;32;20171;-55
2023/04/26 04:36:49;;;;;;;6.12;3.35;;;0.30;99.90;;;;;;7312671;32;20104;-55
2023/04/26 04:40:51;;;;;;;7.70;3.28;;;0.30;99.90;;;;;;7306368;32;20238;-55
2023/04/26 04:44:53;;;;;;;6.60;3.40;;;0.40;99.90;;;;;;7308631;32;20555;-55
2023/04/26 04:48:55;;;;;;;5.40;3.30;;;0.30;99.90;;;;;;7302355;32;20528;-56
2023/04/26 04:52:57;;;;;;;6.95;3.40;;;0.40;99.90;;;;;;7300664;32;20591;-56
2023/04/26 04:57:00;;;;;;;11.93;3.85;;;0.50;99.90;;;;;;7304232;32;20581;-56
2023/04/26 05:01:01;;;;;;;7.15;3.70;;;0.60;99.90;;;;;;7307035;32;20630;-57
2023/04/26 05:05:03;;;;;;;7.87;3.83;;;0.60;99.90;;;;;;7305550;32;20762;-56
2023/04/26 05:09:07;;;;;;;11.00;4.28;;;0.60;99.90;;;;;;7305838;32;20126;-57
2023/04/26 05:13:09;;;;;;;11.43;5.32;;;0.70;99.90;;;;;;7316518;32;20125;-56
2023/04/26 05:17:11;;;;;;;11.30;5.15;;;0.80;99.90;;;;;;7304754;32;20111;-55
2023/04/26 05:21:12;;;;;;;7.78;3.85;;;0.90;99.90;;;;;;7304929;32;20234;-56
2023/04/26 05:25:15;;;;;;;11.10;5.22;;;0.90;99.90;;;;;;7305334;32;20219;-55
2023/04/26 05:29:17;;;;;;;9.90;4.95;;;1.00;99.90;;;;;;7304509;32;20120;-55
2023/04/26 05:33:19;;;;;;;11.88;4.97;;;1.10;99.90;;;;;;7306091;32;20126;-55
2023/04/26 05:37:21;;;;;;;9.10;4.45;;;1.20;99.90;;;;;;7303272;32;20194;-55
2023/04/26 05:41:22;;;;;;;12.37;5.03;;;1.30;99.90;;;;;;7310481;32;20281;-56
2023/04/26 05:45:24;;;;;;;7.80;4.87;;;1.40;99.90;;;;;;7302004;32;20514;-56
2023/04/26 05:49:26;;;;;;;8.60;5.18;;;1.50;99.90;;;;;;7302276;32;20166;-55
2023/04/26 05:53:27;;;;;;;9.85;5.65;;;1.60;99.90;;;;;;7306565;32;20225;-55
2023/04/26 05:57:29;;;;;;;10.52;5.22;;;1.80;99.90;;;;;;7313246;32;20235;-55
2023/04/26 06:01:31;;;;;;;10.02;5.47;;;2.00;99.90;;;;;;7303265;32;20283;-55
2023/04/26 06:05:34;;;;;;;8.30;4.53;;;2.10;99.90;;;;;;7302187;32;20195;-54
2023/04/26 06:09:36;;;;;;;7.85;5.05;;;2.30;99.90;;;;;;7306337;32;20119;-55
2023/04/26 06:13:38;;;;;;;9.50;5.70;;;2.50;99.90;;;;;;7300342;32;20230;-55
2023/04/26 06:17:40;;;;;;;24.20;11.18;;;2.70;99.90;;;;;;7310354;32;20216;-55
2023/04/26 06:21:42;;;;;;;21.02;11.63;;;3.00;99.90;;;;;;7299773;32;20092;-56
2023/04/26 06:25:44;;;;;;;26.65;12.27;;;3.20;99.90;;;;;;7303646;32;20099;-56
2023/04/26 06:29:46;;;;;;;25.17;13.13;;;3.40;99.90;;;;;;7302270;32;20770;-55
2023/04/26 06:33:48;;;;;;;23.38;12.35;;;3.70;99.90;;;;;;7302921;32;20242;-55
2023/04/26 06:37:50;;;;;;;24.55;12.65;;;4.00;99.90;;;;;;7303939;32;20121;-56
2023/04/26 06:41:52;;;;;;;25.33;13.00;;;4.20;99.90;;;;;;7303722;32;20114;-55
2023/04/26 06:45:53;;;;;;;22.77;12.40;;;4.50;99.90;;;;;;7303023;32;20119;-55
2023/04/26 06:49:55;;;;;;;19.87;11.75;;;4.80;99.90;;;;;;7298251;32;20171;-55
2023/04/26 06:54:00;;;;;;;16.23;11.35;;;5.00;99.90;;;;;;7309214;32;20128;-55
2023/04/26 06:58:02;;;;;;;24.30;11.43;;;5.20;99.90;;;;;;7301682;32;20206;-56
2023/04/26 07:02:03;;;;;;;21.40;11.73;;;5.60;99.90;;;;;;7305977;32;20675;-56
2023/04/26 07:06:05;;;;;;;20.62;11.25;;;6.00;99.90;;;;;;7302085;32;20209;-55
2023/04/26 07:10:08;;;;;;;22.10;11.57;;;6.60;99.90;;;;;;7302607;32;20233;-55
2023/04/26 07:14:10;;;;;;;21.75;10.82;;;6.90;99.90;;;;;;7314334;32;20269;-57
2023/04/26 07:18:12;;;;;;;23.33;10.13;;;7.30;99.90;;;;;;7315555;32;20210;-57
2023/04/26 07:22:14;;;;;;;20.20;9.63;;;7.60;99.90;;;;;;7295935;32;20132;-57
2023/04/26 07:26:15;;;;;;;14.20;7.20;;;7.80;99.90;;;;;;7302767;32;20120;-55
2023/04/26 07:30:17;;;;;;;15.35;6.43;;;7.80;99.90;;;;;;7296658;32;20127;-56
2023/04/26 07:34:19;;;;;;;14.30;6.35;;;7.90;99.90;;;;;;7305467;32;20233;-58
2023/04/26 07:38:20;;;;;;;12.90;6.78;;;7.70;99.90;;;;;;7300728;32;20186;-57
2023/04/26 07:42:22;;;;;;;13.20;5.70;;;7.70;99.90;;;;;;7304365;32;20238;-57
2023/04/26 07:46:24;;;;;;;14.13;6.93;;;7.90;99.90;;;;;;7308055;32;20099;-57
2023/04/26 07:50:26;;;;;;;18.48;7.80;;;8.00;99.90;;;;;;7297593;32;20519;-57
2023/04/26 07:54:27;;;;;;;9.07;4.00;;;8.00;99.90;;;;;;7301174;32;20213;-58
2023/04/26 07:58:31;;;;;;;7.75;3.90;;;8.10;99.90;;;;;;7307328;32;20109;-57
2023/04/26 08:02:33;;;;;;;14.35;6.10;;;8.30;99.90;;;;;;7300477;32;20151;-57
2023/04/26 08:06:47;;;;;;;13.23;4.75;;;8.50;99.90;;;;;;7306405;32;20111;-56
2023/04/26 08:10:49;;;;;;;9.48;3.65;;;8.50;99.90;;;;;;7305978;32;20107;-59
2023/04/26 08:14:51;;;;;;;11.30;3.25;;;8.40;99.90;;;;;;7304720;32;20582;-57
2023/04/26 08:18:54;;;;;;;10.77;3.50;;;8.30;99.90;;;;;;7305840;32;20203;-57
2023/04/26 08:22:56;;;;;;;7.30;3.35;;;8.40;99.90;;;;;;7309759;32;20125;-56
2023/04/26 08:26:58;;;;;;;10.98;2.40;;;8.50;99.90;;;;;;7305003;32;20096;-57
2023/04/26 08:30:59;;;;;;;11.77;2.70;;;8.80;99.90;;;;;;7313562;32;20119;-56
2023/04/26 08:35:01;;;;;;;9.85;3.00;;;9.10;99.90;;;;;;7304492;32;20205;-57
2023/04/26 08:39:03;;;;;;;7.62;2.00;;;9.10;99.90;;;;;;7305766;32;20211;-57
2023/04/26 08:43:07;;;;;;;10.57;2.42;;;8.90;99.90;;;;;;7305973;32;20126;-56
2023/04/26 08:47:33;;;;;;;7.00;2.22;;;9.00;99.90;;;;;;7300344;32;20219;-57
2023/04/26 08:51:36;;;;;;;14.85;2.87;;;8.90;99.90;;;;;;7302225;32;20214;-57
2023/04/26 08:55:39;;;;;;;12.05;2.67;;;9.20;99.90;;;;;;7309777;32;20213;-57
2023/04/26 08:59:43;;;;;;;5.90;1.90;;;10.00;99.90;;;;;;7305433;32;20760;-56
2023/04/26 09:03:45;;;;;;;9.02;1.75;;;10.20;99.90;;;;;;7305915;32;20186;-55
2023/04/26 09:07:48;;;;;;;7.03;1.90;;;9.80;99.90;;;;;;7304667;32;20249;-57
2023/04/26 09:11:58;;;;;;;8.60;1.95;;;9.70;99.90;;;;;;7302437;32;20138;-56
2023/04/26 09:16:00;;;;;;;10.50;2.33;;;10.00;99.90;;;;;;7307866;32;20221;-57
2023/04/26 09:20:39;;;;;;;5.72;2.10;;;10.30;99.90;;;;;;7306243;32;20122;-55
2023/04/26 09:24:49;;;;;;;7.32;2.50;;;10.10;99.90;;;;;;7304588;32;20168;-55
2023/04/26 09:29:13;;;;;;;9.10;2.70;;;9.70;99.90;;;;;;7302807;32;20230;-55
2023/04/26 09:33:15;;;;;;;5.53;2.10;;;9.20;99.90;;;;;;7301020;32;20811;-55
2023/04/26 09:37:17;;;;;;;6.12;2.25;;;9.20;99.90;;;;;;7309978;32;20126;-56
2023/04/26 09:41:19;;;;;;;7.78;2.00;;;9.30;99.90;;;;;;7305357;32;20598;-55
2023/04/26 09:45:21;;;;;;;5.70;1.90;;;9.70;99.90;;;;;;7301850;32;20808;-54
2023/04/26 09:49:22;;;;;;;7.07;2.08;;;9.80;99.90;;;;;;7303107;32;20206;-57
2023/04/26 09:53:30;;;;;;;4.60;1.92;;;9.60;99.90;;;;;;7304799;32;20248;-55
2023/04/26 09:57:41;;;;;;;4.40;1.85;;;9.70;99.90;;;;;;7304705;32;20231;-57
2023/04/26 10:01:42;;;;;;;7.57;1.90;;;9.70;99.90;;;;;;7303648;32;20372;-56
2023/04/26 10:05:45;;;;;;;7.97;2.10;;;9.80;99.90;;;;;;7305891;32;21052;-56
2023/04/26 10:09:48;;;;;;;12.65;2.55;;;9.90;99.90;;;;;;7301136;32;20210;-56
2023/04/26 10:13:50;;;;;;;5.15;1.98;;;9.80;99.90;;;;;;7302257;32;20549;-55
2023/04/26 10:17:52;;;;;;;6.55;2.40;;;9.70;99.90;;;;;;7305047;32;20231;-55
2023/04/26 10:21:58;;;;;;;7.32;2.15;;;9.80;99.90;;;;;;7300878;32;20749;-55
2023/04/26 10:26:00;;;;;;;9.73;2.67;;;9.70;99.90;;;;;;7303309;32;20163;-55
2023/04/26 10:30:03;;;;;;;6.22;1.73;;;9.70;99.90;;;;;;7303811;32;21004;-55
2023/04/26 10:34:18;;;;;;;7.10;1.70;;;9.90;99.90;;;;;;7305342;32;20100;-55
2023/04/26 10:38:20;;;;;;;7.80;1.73;;;10.60;99.90;;;;;;7300805;32;20114;-55
2023/04/26 10:42:27;;;;;;;7.22;1.70;;;11.00;99.90;;;;;;7300725;32;20741;-56
2023/04/26 10:46:39;;;;;;;10.35;2.17;;;10.90;99.90;;;;;;7303606;32;20139;-57
2023/04/26 10:51:10;;;;;;;7.32;1.98;;;10.80;99.90;;;;;;7306972;32;20126;-56
2023/04/26 10:55:41;;;;;;;7.10;2.08;;;10.50;99.90;;;;;;7299246;32;20494;-57
2023/04/26 11:00:12;;;;;;;9.23;1.95;;;10.60;99.90;;;;;;7307367;32;20246;-57
2023/04/26 11:04:15;;;;;;;5.85;1.60;;;10.60;99.90;;;;;;7308180;32;20202;-56
2023/04/26 11:08:19;;;;;;;6.12;1.92;;;10.60;99.90;;;;;;7302060;32;20614;-58
2023/04/26 11:12:21;;;;;;;8.18;2.20;;;10.40;99.90;;;;;;7295932;32;22312;-58
2023/04/26 11:16:28;;;;;;;8.77;2.10;;;10.20;99.90;;;;;;7298804;32;20604;-56
2023/04/26 11:20:31;;;;;;;4.87;1.85;;;10.30;99.90;;;;;;7304725;32;20189;-57
2023/04/26 11:24:40;;;;;;;8.93;1.80;;;10.30;99.90;;;;;;7297390;32;20703;-57
2023/04/26 11:28:44;;;;;;;7.87;2.20;;;10.10;99.90;;;;;;7300931;32;20393;-56
2023/04/26 11:32:45;;;;;;;5.72;1.95;;;10.00;99.90;;;;;;7300568;32;20146;-56
2023/04/26 11:36:47;;;;;;;7.20;1.85;;;9.90;99.90;;;;;;7301004;32;20192;-56
2023/04/26 11:40:55;;;;;;;3.65;1.50;;;9.90;99.90;;;;;;7299131;32;20122;-57
2023/04/26 11:44:58;;;;;;;4.82;1.62;;;10.00;99.90;;;;;;7300972;32;20201;-57
2023/04/26 11:49:00;;;;;;;9.63;2.37;;;10.30;99.90;;;;;;7304614;32;20100;-56
2023/04/26 11:53:04;;;;;;;6.82;1.65;;;10.30;99.90;;;;;;7299197;32;20096;-57
2023/04/26 11:57:17;;;;;;;5.50;1.65;;;10.30;99.90;;;;;;7302659;32;20104;-56
2023/04/26 12:01:23;;;;;;;10.70;2.10;;;10.60;99.90;;;;;;7293823;32;20176;-58
2023/04/26 12:05:29;;;;;;;4.67;1.50;;;11.20;99.90;;;;;;7304228;32;20153;-56
2023/04/26 12:09:31;;;;;;;7.85;2.03;;;11.60;99.50;;;;;;7301288;32;20238;-57
2023/04/26 12:13:33;;;;;;;6.05;1.55;;;11.50;99.90;;;;;;7300276;32;20733;-57
2023/04/26 12:17:35;;;;;;;3.30;1.60;;;11.20;99.70;;;;;;7296159;32;20147;-56
2023/04/26 12:21:41;;;;;;;6.80;1.58;;;11.20;97.50;;;;;;7294762;32;20096;-62
2023/04/26 12:25:54;;;;;;;5.97;2.17;;;11.40;99.90;;;;;;7294929;32;20415;-57
2023/04/26 12:29:56;;;;;;;5.15;2.03;;;11.60;95.50;;;;;;7308232;32;20276;-56
2023/04/26 12:33:58;;;;;;;6.47;1.60;;;11.30;97.00;;;;;;7304772;32;21020;-57
2023/04/26 12:38:00;;;;;;;6.25;2.28;;;11.10;96.50;;;;;;7296296;32;20104;-56
2023/04/26 12:42:02;;;;;;;3.42;1.98;;;10.80;97.00;;;;;;7298090;32;20123;-57
2023/04/26 12:46:04;;;;;;;8.77;2.12;;;10.90;95.70;;;;;;7299194;32;20224;-57
2023/04/26 12:50:06;;;;;;;3.58;1.65;;;11.20;98.40;;;;;;7306006;32;20108;-57
2023/04/26 12:54:08;;;;;;;4.00;2.08;;;12.10;95.60;;;;;;7304711;32;20159;-56
2023/04/26 12:58:10;;;;;;;6.78;2.20;;;12.80;92.40;;;;;;7304325;32;20745;-56
2023/04/26 13:02:12;;;;;;;7.20;2.10;;;13.60;93.40;;;;;;7305777;32;20188;-55
2023/04/26 13:06:14;;;;;;;7.03;3.03;;;14.20;80.00;;;;;;7308548;32;20829;-55
2023/04/26 13:10:16;;;;;;;9.52;2.80;;;15.00;77.30;;;;;;7301438;32;20149;-56
2023/04/26 13:14:17;;;;;;;6.15;2.92;;;15.50;78.80;;;;;;7309779;32;20130;-57
2023/04/26 13:18:19;;;;;;;8.50;2.58;;;16.40;72.00;;;;;;7309269;32;20158;-57
2023/04/26 13:22:21;;;;;;;12.55;2.65;;;17.20;65.30;;;;;;7312636;32;20100;-56
2023/04/26 13:26:23;;;;;;;9.75;2.70;;;16.50;64.70;;;;;;7313643;32;20193;-56
2023/04/26 13:30:28;;;;;;;4.93;2.28;;;16.90;64.40;;;;;;7307706;32;20207;-56
2023/04/26 13:34:30;;;;;;;8.50;2.37;;;16.90;60.80;;;;;;7303123;32;20112;-56
2023/04/26 13:38:31;;;;;;;8.73;2.20;;;16.20;64.00;;;;;;7301928;32;20104;-56
2023/04/26 13:42:33;;;;;;;5.65;2.33;;;14.80;69.70;;;;;;7303477;32;20250;-57
2023/04/26 13:46:35;;;;;;;9.02;2.53;;;13.60;72.10;;;;;;7297991;32;20112;-56
2023/04/26 13:50:37;;;;;;;10.07;2.75;;;13.00;76.70;;;;;;7299380;32;20104;-56
2023/04/26 13:54:39;;;;;;;6.93;2.40;;;12.50;75.80;;;;;;7307911;32;20420;-56
2023/04/26 13:58:42;;;;;;;6.20;2.60;;;12.30;80.10;;;;;;7308541;32;20158;-57
2023/04/26 14:02:43;;;;;;;6.20;2.65;;;11.80;84.80;;;;;;7307299;32;20211;-56
2023/04/26 14:06:45;;;;;;;7.93;2.92;;;12.10;81.30;;;;;;7312365;32;20621;-56
2023/04/26 14:10:47;;;;;;;7.95;3.45;;;12.40;86.40;;;;;;7309711;32;20115;-57
2023/04/26 14:14:49;;;;;;;7.95;2.62;;;13.00;78.50;;;;;;7310848;32;20095;-57
2023/04/26 14:18:51;;;;;;;8.05;3.10;;;13.80;78.80;;;;;;7309222;32;20877;-57
2023/04/26 14:22:53;;;;;;;7.05;2.00;;;14.80;78.20;;;;;;7307379;32;20288;-57
2023/04/26 14:26:55;;;;;;;4.45;2.28;;;16.40;69.30;;;;;;7308628;32;20203;-57
2023/04/26 14:30:56;;;;;;;4.55;1.60;;;17.30;67.60;;;;;;7305368;32;20512;-57
2023/04/26 14:34:58;;;;;;;5.00;1.90;;;16.60;60.00;;;;;;7306622;32;20104;-56
2023/04/26 14:39:00;;;;;;;4.85;2.37;;;14.90;65.20;;;;;;7304123;32;20305;-57
2023/04/26 14:43:02;;;;;;;5.10;2.10;;;14.40;72.50;;;;;;7305271;32;20565;-57
2023/04/26 14:47:03;;;;;;;6.78;2.83;;;14.10;74.40;;;;;;7301993;32;20544;-56
2023/04/26 14:51:05;;;;;;;6.37;2.33;;;13.90;70.00;;;;;;7307352;32;20860;-57
2023/04/26 14:55:07;;;;;;;8.20;2.42;;;13.80;76.90;;;;;;7311055;32;20103;-57
2023/04/26 14:59:09;;;;;;;3.47;2.00;;;13.70;68.60;;;;;;7299373;32;20121;-56
2023/04/26 15:03:10;;;;;;;7.68;2.55;;;13.50;68.70;;;;;;7305510;32;20122;-57
2023/04/26 15:07:13;;;;;;;6.07;2.25;;;13.70;71.90;;;;;;7302502;32;20191;-57
2023/04/26 15:11:32;;;;;;;5.28;2.53;;;13.50;72.60;;;;;;7299789;32;20126;-57
2023/04/26 15:15:34;;;;;;;6.22;2.80;;;13.70;73.90;;;;;;7308700;32;20186;-57
2023/04/26 15:19:35;;;;;;;7.30;2.95;;;13.00;77.00;;;;;;7305635;32;20111;-57
2023/04/26 15:23:37;;;;;;;6.20;2.90;;;13.20;77.40;;;;;;7307561;32;20092;-58
2023/04/26 15:27:39;;;;;;;5.10;2.78;;;12.80;76.90;;;;;;7308561;32;20581;-58
2023/04/26 15:31:41;;;;;;;5.43;2.90;;;12.40;79.80;;;;;;7293268;32;20761;-55
2023/04/26 15:35:43;;;;;;;7.30;2.83;;;11.80;77.90;;;;;;7308331;32;20160;-57
2023/04/26 15:39:46;;;;;;;7.65;3.25;;;11.60;83.20;;;;;;7299755;32;20131;-58
2023/04/26 15:43:53;;;;;;;9.73;5.12;;;11.60;81.00;;;;;;7319462;32;20095;-58
2023/04/26 15:47:55;;;;;;;9.07;3.70;;;11.60;84.40;;;;;;7307539;32;20104;-58
2023/04/26 15:51:57;;;;;;;9.20;4.35;;;12.00;84.80;;;;;;7304794;32;20137;-58
2023/04/26 15:56:00;;;;;;;7.20;3.62;;;11.90;81.20;;;;;;7298525;32;20222;-58
2023/04/26 16:00:02;;;;;;;6.70;2.80;;;11.90;83.70;;;;;;7308706;32;20100;-58
2023/04/26 16:04:04;;;;;;;6.93;2.80;;;11.50;82.20;;;;;;7304671;32;20137;-58
2023/04/26 16:08:06;;;;;;;6.35;2.80;;;11.30;84.60;;;;;;7304414;32;20122;-58
2023/04/26 16:12:07;;;;;;;9.77;2.80;;;11.00;85.40;;;;;;7301829;32;20156;-59
2023/04/26 16:16:09;;;;;;;8.27;3.28;;;10.90;88.40;;;;;;7299848;32;20624;-57
2023/04/26 16:20:11;;;;;;;5.82;3.10;;;11.00;88.40;;;;;;7309769;32;20636;-57
2023/04/26 16:24:13;;;;;;;5.05;2.80;;;10.80;85.40;;;;;;7305913;32;20209;-57
2023/04/26 16:28:15;;;;;;;6.72;2.65;;;11.00;87.40;;;;;;7309631;32;20337;-57
2023/04/26 16:32:16;;;;;;;11.80;6.12;;;10.90;86.90;;;;;;7311428;32;20119;-57
2023/04/26 16:36:18;;;;;;;7.22;2.50;;;10.80;86.60;;;;;;7310295;32;20097;-57
2023/04/26 16:40:20;;;;;;;9.88;2.97;;;10.50;87.80;;;;;;7307419;32;20183;-58
2023/04/26 16:44:24;;;;;;;5.22;2.67;;;10.40;90.20;;;;;;7306494;32;20133;-57
2023/04/26 16:48:26;;;;;;;4.60;2.40;;;10.30;90.30;;;;;;7313313;32;20134;-57
2023/04/26 16:52:27;;;;;;;6.65;2.40;;;10.60;90.60;;;;;;7307693;32;20187;-57
2023/04/26 16:56:29;;;;;;;9.02;2.60;;;10.60;91.50;;;;;;7312465;32;20100;-59
2023/04/26 17:00:31;;;;;;;6.32;2.50;;;10.60;91.30;;;;;;7305580;32;20119;-59
2023/04/26 17:04:33;;;;;;;6.05;2.70;;;10.40;92.90;;;;;;7309153;32;20122;-57
2023/04/26 17:08:35;;;;;;;6.65;2.75;;;10.40;91.00;;;;;;7309987;32;20146;-57
2023/04/26 17:12:37;;;;;;;8.90;3.22;;;10.40;92.20;;;;;;7301686;32;20104;-56
2023/04/26 17:16:39;;;;;;;6.62;2.65;;;10.10;90.70;;;;;;7301452;32;20124;-57
2023/04/26 17:20:41;;;;;;;6.75;3.12;;;10.10;92.30;;;;;;7307319;32;20132;-54
2023/04/26 17:24:42;;;;;;;6.80;2.80;;;10.10;91.80;;;;;;7300276;32;20749;-54
2023/04/26 17:28:44;;;;;;;8.23;2.42;;;10.10;92.90;;;;;;7301284;32;20325;-55
2023/04/26 17:32:46;;;;;;;7.15;2.55;;;9.90;93.50;;;;;;7306562;32;20111;-55
2023/04/26 17:36:48;;;;;;;7.87;2.45;;;10.00;93.20;;;;;;7317153;32;20217;-55
2023/04/26 17:40:53;;;;;;;10.50;3.05;;;9.90;95.30;;;;;;7303579;32;20100;-57
2023/04/26 17:44:55;;;;;;;5.75;2.40;;;9.80;95.50;;;;;;7303537;32;20525;-56
2023/04/26 17:48:58;;;;;;;9.15;3.37;;;9.70;95.90;;;;;;7307285;32;20120;-54
2023/04/26 17:53:00;;;;;;;6.45;2.53;;;9.60;98.70;;;;;;7313545;32;20518;-57
2023/04/26 17:57:03;;;;;;;5.82;2.78;;;9.50;99.00;;;;;;7313163;32;20096;-57
2023/04/26 18:01:05;;;;;;;7.25;2.92;;;9.40;99.90;;;;;;7295832;32;20103;-58
2023/04/26 18:05:09;;;;;;;7.07;2.97;;;9.30;99.90;;;;;;7300737;32;20119;-57
2023/04/26 18:09:11;;;;;;;7.65;2.53;;;9.20;99.90;;;;;;7305197;32;20114;-57
2023/04/26 18:13:13;;;;;;;8.45;2.65;;;9.20;99.90;;;;;;7296603;32;20104;-55
2023/04/26 18:17:15;;;;;;;5.03;2.58;;;9.10;99.30;;;;;;7302781;32;20234;-56
2023/04/26 18:21:17;;;;;;;7.90;2.92;;;9.10;99.90;;;;;;7313452;32;20103;-55
2023/04/26 18:25:18;;;;;;;5.90;2.75;;;8.90;99.90;;;;;;7296789;32;20093;-56
2023/04/26 18:29:20;;;;;;;8.68;2.75;;;8.80;99.90;;;;;;7300659;32;20109;-56
2023/04/26 18:33:22;;;;;;;6.65;2.85;;;8.70;99.90;;;;;;7309094;32;20100;-57
2023/04/26 18:37:24;;;;;;;5.47;2.72;;;8.60;99.90;;;;;;7309586;32;20205;-56
2023/04/26 18:41:26;;;;;;;4.35;2.25;;;8.40;99.90;;;;;;7305180;32;20161;-55
2023/04/26 18:45:28;;;;;;;5.25;2.97;;;8.40;99.90;;;;;;7304036;32;20442;-56
2023/04/26 18:49:29;;;;;;;5.97;2.30;;;8.20;99.90;;;;;;7305197;32;20139;-55
2023/04/26 18:53:31;;;;;;;4.87;2.70;;;8.10;99.90;;;;;;7305718;32;20212;-56
2023/04/26 18:57:33;;;;;;;6.93;2.72;;;8.00;99.90;;;;;;7299612;32;20134;-56
2023/04/26 19:01:34;;;;;;;7.82;2.28;;;7.90;99.90;;;;;;7307145;32;20224;-55
2023/04/26 19:05:40;;;;;;;7.82;2.65;;;7.90;99.90;;;;;;7300584;32;20195;-55
2023/04/26 19:09:42;;;;;;;7.57;2.50;;;7.80;99.90;;;;;;7306963;32;20275;-57
2023/04/26 19:13:55;;;;;;;6.45;2.30;;;7.60;99.90;;;;;;7300989;32;20260;-55
2023/04/26 19:17:57;;;;;;;7.95;2.65;;;7.60;99.90;;;;;;7299890;32;20195;-56
2023/04/26 19:21:59;;;;;;;7.40;2.03;;;7.50;99.90;;;;;;7301508;32;20521;-57
2023/04/26 19:26:08;;;;;;;9.20;2.42;;;7.50;99.90;;;;;;7300777;32;20198;-56
2023/04/26 19:30:11;;;;;;;8.60;2.90;;;7.40;99.90;;;;;;7298507;32;20091;-56
2023/04/26 19:34:12;;;;;;;4.68;2.78;;;7.40;99.90;;;;;;7298489;32;20242;-56
2023/04/26 19:38:15;;;;;;;4.40;2.35;;;7.30;99.90;;;;;;7306140;32;20235;-55
2023/04/26 19:42:17;;;;;;;6.40;2.62;;;7.30;99.90;;;;;;7310358;32;20099;-57
2023/04/26 19:46:18;;;;;;;6.68;2.55;;;7.20;99.90;;;;;;7302708;32;20158;-56
2023/04/26 19:50:20;;;;;;;5.68;2.87;;;7.10;99.90;;;;;;7303546;32;20114;-57
2023/04/26 19:54:22;;;;;;;7.72;2.58;;;7.20;99.90;;;;;;7314037;32;20803;-56
2023/04/26 19:58:24;;;;;;;10.93;5.20;;;7.00;99.90;;;;;;7308996;32;20182;-56
2023/04/26 20:02:26;;;;;;;14.02;8.05;;;7.00;99.90;;;;;;7308750;32;20203;-55
2023/04/26 20:06:28;;;;;;;6.78;3.00;;;6.90;99.90;;;;;;7310451;32;20758;-55
2023/04/26 20:10:32;;;;;;;5.72;3.08;;;6.90;99.90;;;;;;7307448;32;20103;-55
2023/04/26 20:14:34;;;;;;;9.10;3.08;;;6.90;99.90;;;;;;7310659;32;20185;-56
2023/04/26 20:18:36;;;;;;;6.55;2.75;;;6.90;99.90;;;;;;7313493;32;20187;-56
2023/04/26 20:22:40;;;;;;;6.53;3.05;;;6.80;99.90;;;;;;7314089;32;20104;-56
2023/04/26 20:26:42;;;;;;;10.55;3.65;;;6.80;99.90;;;;;;7317207;32;20189;-56
2023/04/26 20:30:44;;;;;;;6.87;3.25;;;6.80;99.90;;;;;;7310377;32;20118;-55
2023/04/26 20:34:46;;;;;;;9.63;3.78;;;6.80;99.90;;;;;;7301852;32;20230;-55
2023/04/26 20:38:48;;;;;;;6.50;3.30;;;6.80;99.90;;;;;;7312812;32;20241;-56
2023/04/26 20:42:50;;;;;;;7.85;3.37;;;6.70;99.90;;;;;;7310367;32;20273;-57
2023/04/26 20:46:53;;;;;;;6.15;3.03;;;6.70;99.90;;;;;;7311565;32;20104;-56
2023/04/26 20:50:55;;;;;;;6.82;3.08;;;6.70;99.90;;;;;;7313365;32;20261;-56
2023/04/26 20:54:57;;;;;;;6.90;3.25;;;6.70;99.90;;;;;;7303514;32;20157;-57
2023/04/26 20:58:59;;;;;;;8.23;2.70;;;6.60;99.90;;;;;;7305631;32;20103;-57
2023/04/26 21:03:00;;;;;;;6.18;2.80;;;6.60;99.90;;;;;;7319615;32;20104;-56
2023/04/26 21:07:02;;;;;;;10.15;3.10;;;6.60;99.90;;;;;;7317771;32;20181;-56
2023/04/26 21:11:05;;;;;;;8.50;3.47;;;6.50;99.90;;;;;;7308941;32;20104;-56